createdAt,value
2018-02-07T00:00:55.026Z,17.90
2018-02-07T00:02:57.469Z,17.90
2018-02-07T00:05:00.070Z,17.90
2018-02-07T00:07:02.560Z,17.90
2018-02-07T00:09:04.989Z,17.90
2018-02-07T00:11:07.476Z,17.90
2018-02-07T00:13:09.944Z,17.80
2018-02-07T00:15:12.385Z,17.90
2018-02-07T00:17:15.601Z,17.90
2018-02-07T00:19:18.054Z,17.90
2018-02-07T00:21:20.515Z,17.90
2018-02-07T00:23:23.109Z,17.80
2018-02-07T00:25:25.600Z,17.80
2018-02-07T00:27:28.246Z,17.90
2018-02-07T00:29:30.815Z,17.80
2018-02-07T00:31:33.400Z,17.80
2018-02-07T00:33:36.077Z,17.90
2018-02-07T00:35:38.553Z,17.90
2018-02-07T00:37:41.016Z,17.80
2018-02-07T00:39:43.473Z,17.80
2018-02-07T00:41:45.961Z,17.80
2018-02-07T00:43:48.420Z,17.80
2018-02-07T00:45:51.101Z,17.90
2018-02-07T00:47:53.592Z,17.80
2018-02-07T00:49:56.061Z,17.80
2018-02-07T00:51:58.481Z,17.80
2018-02-07T00:54:01.697Z,17.80
2018-02-07T00:56:04.183Z,17.80
2018-02-07T00:58:06.609Z,17.80
2018-02-07T01:00:09.028Z,17.90
2018-02-07T01:02:11.562Z,17.80
2018-02-07T01:04:13.989Z,17.80
2018-02-07T01:06:16.616Z,17.90
2018-02-07T01:08:19.037Z,17.80
2018-02-07T01:10:21.563Z,17.80
2018-02-07T01:12:23.984Z,17.80
2018-02-07T01:14:27.169Z,17.90
2018-02-07T01:16:29.606Z,17.80
2018-02-07T01:18:32.083Z,17.80
2018-02-07T01:20:34.629Z,17.80
2018-02-07T01:22:37.050Z,17.80
2018-02-07T01:24:39.501Z,17.80
2018-02-07T01:26:43.425Z,17.80
2018-02-07T01:28:45.908Z,17.80
2018-02-07T01:30:48.505Z,17.80
2018-02-07T01:32:51.182Z,17.80
2018-02-07T01:34:53.612Z,17.80
2018-02-07T01:36:56.842Z,17.80
2018-02-07T01:38:59.416Z,17.80
2018-02-07T01:41:01.837Z,17.80
2018-02-07T01:43:05.041Z,17.80
2018-02-07T01:45:07.640Z,17.80
2018-02-07T01:47:10.214Z,17.80
2018-02-07T01:49:12.665Z,17.80
2018-02-07T01:51:15.096Z,17.80
2018-02-07T01:53:17.709Z,17.80
2018-02-07T01:55:20.164Z,17.80
2018-02-07T01:57:23.353Z,17.80
2018-02-07T01:59:25.784Z,17.80
2018-02-07T02:01:28.305Z,17.80
2018-02-07T02:03:30.884Z,17.80
2018-02-07T02:05:33.335Z,17.80
2018-02-07T02:07:35.761Z,17.80
2018-02-07T02:09:38.298Z,17.80
2018-02-07T02:11:40.768Z,17.80
2018-02-07T02:13:43.246Z,17.80
2018-02-07T02:15:45.904Z,17.80
2018-02-07T02:17:48.577Z,17.80
2018-02-07T02:19:50.997Z,17.80
2018-02-07T02:21:53.521Z,17.80
2018-02-07T02:23:56.197Z,17.80
2018-02-07T02:25:58.617Z,17.80
2018-02-07T02:28:01.150Z,17.80
2018-02-07T02:30:03.801Z,17.80
2018-02-07T02:32:06.313Z,17.80
2018-02-07T02:34:08.954Z,17.80
2018-02-07T02:36:23.321Z,17.80
2018-02-07T02:38:25.794Z,17.80
2018-02-07T02:40:28.326Z,17.80
2018-02-07T02:42:30.803Z,17.80
2018-02-07T02:44:33.239Z,17.80
2018-02-07T02:46:35.664Z,17.80
2018-02-07T02:48:38.212Z,17.80
2018-02-07T02:50:40.796Z,17.80
2018-02-07T02:52:43.343Z,17.80
2018-02-07T02:54:45.789Z,17.80
2018-02-07T02:56:48.217Z,17.80
2018-02-07T02:58:50.750Z,17.80
2018-02-07T03:00:53.353Z,17.80
2018-02-07T03:02:55.781Z,17.80
2018-02-07T03:04:59.004Z,17.80
2018-02-07T03:07:01.572Z,17.80
2018-02-07T03:09:03.988Z,17.80
2018-02-07T03:11:06.516Z,17.70
2018-02-07T03:13:08.953Z,17.80
2018-02-07T03:15:12.148Z,17.80
2018-02-07T03:17:14.574Z,17.80
2018-02-07T03:19:17.048Z,17.80
2018-02-07T03:21:19.464Z,17.80
2018-02-07T03:23:21.896Z,17.70
2018-02-07T03:25:24.629Z,17.70
2018-02-07T03:27:27.051Z,17.70
2018-02-07T03:29:29.472Z,17.80
2018-02-07T03:31:32.234Z,17.70
2018-02-07T03:33:34.658Z,17.70
2018-02-07T03:35:37.194Z,17.70
2018-02-07T03:37:39.629Z,17.70
2018-02-07T03:39:42.047Z,17.70
2018-02-07T03:41:44.489Z,17.80
2018-02-07T03:43:46.928Z,17.70
2018-02-07T03:45:49.525Z,17.70
2018-02-07T03:47:51.961Z,17.80
2018-02-07T03:49:55.277Z,17.70
2018-02-07T03:51:57.828Z,17.70
2018-02-07T03:54:00.336Z,17.70
2018-02-07T03:56:02.748Z,17.70
2018-02-07T03:58:05.232Z,17.80
2018-02-07T04:00:07.672Z,17.70
2018-02-07T04:02:10.302Z,17.70
2018-02-07T04:04:12.737Z,17.70
2018-02-07T04:06:15.933Z,17.70
2018-02-07T04:08:18.533Z,17.70
2018-02-07T04:10:20.969Z,17.70
2018-02-07T04:12:24.177Z,17.70
2018-02-07T04:14:26.761Z,17.70
2018-02-07T04:16:29.325Z,17.70
2018-02-07T04:18:31.908Z,17.70
2018-02-07T04:20:34.586Z,17.70
2018-02-07T04:22:37.073Z,17.70
2018-02-07T04:24:39.596Z,17.70
2018-02-07T04:26:42.038Z,17.70
2018-02-07T04:28:45.979Z,17.70
2018-02-07T04:30:48.461Z,17.70
2018-02-07T04:32:50.877Z,17.70
2018-02-07T04:34:53.301Z,17.70
2018-02-07T04:36:55.976Z,17.70
2018-02-07T04:38:58.409Z,17.80
2018-02-07T04:41:01.622Z,17.80
2018-02-07T04:43:04.093Z,17.70
2018-02-07T04:45:06.675Z,17.80
2018-02-07T04:47:09.101Z,17.80
2018-02-07T04:49:11.550Z,17.80
2018-02-07T04:51:14.082Z,17.80
2018-02-07T04:53:16.505Z,17.80
2018-02-07T04:55:18.960Z,17.80
2018-02-07T04:57:21.499Z,17.80
2018-02-07T04:59:24.177Z,17.80
2018-02-07T05:01:26.622Z,17.80
2018-02-07T05:03:29.037Z,17.90
2018-02-07T05:05:31.474Z,17.80
2018-02-07T05:07:33.941Z,17.80
2018-02-07T05:09:36.513Z,17.80
2018-02-07T05:11:38.988Z,17.80
2018-02-07T05:13:41.411Z,17.80
2018-02-07T05:15:43.849Z,17.80
2018-02-07T05:17:46.392Z,17.80
2018-02-07T05:19:48.820Z,17.80
2018-02-07T05:21:52.047Z,17.90
2018-02-07T05:23:54.491Z,17.80
2018-02-07T05:25:57.091Z,17.90
2018-02-07T05:27:59.622Z,17.90
2018-02-07T05:30:02.229Z,17.90
2018-02-07T05:32:04.717Z,17.90
2018-02-07T05:34:07.249Z,17.90
2018-02-07T05:36:09.844Z,17.90
2018-02-07T05:38:12.276Z,17.90
2018-02-07T05:40:15.464Z,17.90
2018-02-07T05:42:17.974Z,17.90
2018-02-07T05:44:20.544Z,17.90
2018-02-07T05:46:23.029Z,17.90
2018-02-07T05:48:25.512Z,17.90
2018-02-07T05:50:27.981Z,17.90
2018-02-07T05:52:30.632Z,17.90
2018-02-07T05:54:33.064Z,17.90
2018-02-07T05:56:36.384Z,17.90
2018-02-07T05:58:38.856Z,17.90
2018-02-07T06:00:42.053Z,17.90
2018-02-07T06:02:44.506Z,17.90
2018-02-07T06:04:46.932Z,17.90
2018-02-07T06:06:49.368Z,17.90
2018-02-07T06:08:51.840Z,17.90
2018-02-07T06:10:54.263Z,17.90
2018-02-07T06:12:57.582Z,17.90
2018-02-07T06:15:00.349Z,17.90
2018-02-07T06:17:02.924Z,17.90
2018-02-07T06:19:05.396Z,17.90
2018-02-07T06:21:07.874Z,17.90
2018-02-07T06:23:10.362Z,17.90
2018-02-07T06:25:12.836Z,17.90
2018-02-07T06:27:15.249Z,17.90
2018-02-07T06:29:18.461Z,17.90
2018-02-07T06:31:20.927Z,17.90
2018-02-07T06:33:23.397Z,17.90
2018-02-07T06:35:25.869Z,17.90
2018-02-07T06:37:28.445Z,17.90
2018-02-07T06:39:30.898Z,17.90
2018-02-07T06:41:33.335Z,17.90
2018-02-07T06:43:35.876Z,17.90
2018-02-07T06:45:38.404Z,17.90
2018-02-07T06:47:40.885Z,17.90
2018-02-07T06:49:43.473Z,17.90
2018-02-07T06:51:45.918Z,17.90
2018-02-07T06:53:49.093Z,17.90
2018-02-07T06:55:51.701Z,17.90
2018-02-07T06:57:54.149Z,17.90
2018-02-07T06:59:56.577Z,17.90
2018-02-07T07:01:59.004Z,17.90
2018-02-07T07:04:01.579Z,18.00
2018-02-07T07:06:04.085Z,18.00
2018-02-07T07:08:06.507Z,18.00
2018-02-07T07:10:08.992Z,17.90
2018-02-07T07:12:11.441Z,17.90
2018-02-07T07:14:13.918Z,17.90
2018-02-07T07:16:16.588Z,17.90
2018-02-07T07:18:19.082Z,17.90
2018-02-07T07:20:21.555Z,17.90
2018-02-07T07:22:24.017Z,17.90
2018-02-07T07:24:26.446Z,17.90
2018-02-07T07:26:29.761Z,18.00
2018-02-07T07:28:32.235Z,17.90
2018-02-07T07:30:34.677Z,18.00
2018-02-07T07:32:37.896Z,17.90
2018-02-07T07:34:40.308Z,17.90
2018-02-07T07:36:42.935Z,18.00
2018-02-07T07:38:45.532Z,17.90
2018-02-07T07:40:48.662Z,17.90
2018-02-07T07:42:51.881Z,17.90
2018-02-07T07:44:54.304Z,17.90
2018-02-07T07:46:56.725Z,17.90
2018-02-07T07:48:59.159Z,17.90
2018-02-07T07:51:01.585Z,18.00
2018-02-07T07:53:04.013Z,18.00
2018-02-07T07:55:06.437Z,17.90
2018-02-07T07:57:08.874Z,18.00
2018-02-07T07:59:11.314Z,18.00
2018-02-07T08:01:13.742Z,17.90
2018-02-07T08:03:16.184Z,18.00
2018-02-07T08:05:18.626Z,18.00
2018-02-07T08:07:21.041Z,18.00
2018-02-07T08:09:23.485Z,18.00
2018-02-07T08:11:25.901Z,18.00
2018-02-07T08:13:29.085Z,18.00
2018-02-07T08:15:32.288Z,18.00
2018-02-07T08:17:35.488Z,18.00
2018-02-07T08:19:37.909Z,18.00
2018-02-07T08:21:40.341Z,18.00
2018-02-07T08:23:42.768Z,18.00
2018-02-07T08:25:45.970Z,18.00
2018-02-07T08:27:49.174Z,18.00
2018-02-07T08:29:51.598Z,18.00
2018-02-07T08:31:54.025Z,18.00
2018-02-07T08:33:56.506Z,18.00
2018-02-07T08:35:58.924Z,18.00
2018-02-07T08:38:02.117Z,18.00
2018-02-07T08:40:05.317Z,18.00
2018-02-07T08:42:07.725Z,18.00
2018-02-07T08:44:10.145Z,18.00
2018-02-07T08:46:12.836Z,18.00
2018-02-07T08:48:15.249Z,18.10
2018-02-07T08:50:17.689Z,18.10
2018-02-07T08:52:20.110Z,18.10
2018-02-07T08:54:23.285Z,18.20
2018-02-07T08:56:25.725Z,18.20
2018-02-07T08:58:28.181Z,18.30
2018-02-07T13:46:16.988Z,19.50
2018-02-07T13:48:19.401Z,19.50
2018-02-07T13:50:21.902Z,19.50
2018-02-07T13:52:24.332Z,19.50
2018-02-07T13:54:26.817Z,19.50
2018-02-07T13:56:29.259Z,19.50
2018-02-07T13:58:32.446Z,19.50
2018-02-07T14:03:05.574Z,19.50
2018-02-07T14:05:08.017Z,19.50
2018-02-07T14:07:11.209Z,19.50
2018-02-07T14:09:14.395Z,19.50
2018-02-07T14:11:16.990Z,19.50
2018-02-07T14:13:19.404Z,19.50
2018-02-07T14:15:21.829Z,19.40
2018-02-07T14:17:24.273Z,19.40
2018-02-07T14:19:27.456Z,19.40
2018-02-07T14:21:30.648Z,19.40
2018-02-07T14:23:33.832Z,19.40
2018-02-07T14:25:37.038Z,19.40
2018-02-07T14:27:39.460Z,19.40
2018-02-07T14:29:41.885Z,19.40
2018-02-07T14:31:44.301Z,19.30
2018-02-07T14:33:46.748Z,19.30
2018-02-07T14:35:49.171Z,19.30
2018-02-07T14:37:51.589Z,19.30
2018-02-07T14:39:54.024Z,19.30
2018-02-07T14:41:56.438Z,19.20
2018-02-07T14:43:58.855Z,19.20
2018-02-07T14:46:01.285Z,19.20
2018-02-07T14:48:03.709Z,19.20
2018-02-07T14:50:06.156Z,19.20
2018-02-07T14:52:08.566Z,19.10
2018-02-07T14:54:10.985Z,19.10
2018-02-07T14:56:13.424Z,19.10
2018-02-07T14:58:15.835Z,19.10
2018-02-07T15:00:18.248Z,19.10
2018-02-07T15:02:20.681Z,19.10
2018-02-07T15:04:23.114Z,19.10
2018-02-07T15:06:26.296Z,19.00
2018-02-07T15:08:29.493Z,19.00
2018-02-07T15:10:32.685Z,19.00
2018-02-07T15:12:35.879Z,19.00
2018-02-07T15:14:38.299Z,19.00
2018-02-07T15:16:40.732Z,19.00
2018-02-07T15:18:43.157Z,19.00
2018-02-07T15:20:45.568Z,19.00
2018-02-07T15:22:47.984Z,18.90
2018-02-07T15:24:50.404Z,18.90
2018-02-07T15:26:52.848Z,18.90
2018-02-07T15:28:56.025Z,18.90
2018-02-07T15:30:59.229Z,18.90
2018-02-07T15:33:01.649Z,18.90
2018-02-07T15:35:04.080Z,18.90
2018-02-07T15:37:06.504Z,18.90
2018-02-07T15:39:08.937Z,18.90
2018-02-07T15:41:11.370Z,18.90
2018-02-07T15:43:14.569Z,18.90
2018-02-07T15:45:16.988Z,18.90
2018-02-07T15:47:19.457Z,18.90
2018-02-07T15:49:21.882Z,18.90
2018-02-07T15:51:24.298Z,18.90
2018-02-07T15:53:26.727Z,18.90
2018-02-07T15:55:29.148Z,18.90
2018-02-07T15:57:31.573Z,18.80
2018-02-07T15:59:33.999Z,18.80
2018-02-07T16:01:37.306Z,18.80
2018-02-07T16:03:39.723Z,18.80
2018-02-07T16:05:42.145Z,18.80
2018-02-07T16:07:44.722Z,18.80
2018-02-07T16:09:47.182Z,18.80
2018-02-07T16:11:49.594Z,18.80
2018-02-07T16:13:52.021Z,18.80
2018-02-07T16:15:54.452Z,18.80
2018-02-07T16:17:56.873Z,18.80
2018-02-07T16:19:59.307Z,18.80
2018-02-07T16:22:02.493Z,18.70
2018-02-07T16:24:05.697Z,18.70
2018-02-07T16:26:08.137Z,18.70
2018-02-07T16:28:10.557Z,18.70
2018-02-07T16:30:12.973Z,18.70
2018-02-07T16:32:15.401Z,18.70
2018-02-07T16:34:17.816Z,18.70
2018-02-07T16:36:20.994Z,18.60
2018-02-07T16:38:23.428Z,18.60
2018-02-07T16:40:25.857Z,18.60
2018-02-07T16:42:29.043Z,18.60
2018-02-07T16:44:32.227Z,18.60
2018-02-07T16:46:35.445Z,18.60
2018-02-07T16:48:37.862Z,18.60
2018-02-07T16:50:40.288Z,18.60
2018-02-07T16:52:42.724Z,18.50
2018-02-07T16:54:45.922Z,18.50
2018-02-07T16:56:48.357Z,18.50
2018-02-07T16:58:50.771Z,18.50
2018-02-07T17:00:53.186Z,18.50
2018-02-07T17:02:55.617Z,18.50
2018-02-07T17:04:58.053Z,18.50
2018-02-07T17:07:01.237Z,18.40
2018-02-07T17:09:04.465Z,18.40
2018-02-07T17:11:06.910Z,18.40
2018-02-07T17:13:09.369Z,18.40
2018-02-07T17:15:11.963Z,18.40
2018-02-07T17:17:14.637Z,18.40
2018-02-07T17:19:17.110Z,18.40
2018-02-07T17:21:19.697Z,18.40
2018-02-07T17:23:53.116Z,18.40
2018-02-07T17:26:10.681Z,18.40
2018-02-07T17:28:13.261Z,18.40
2018-02-07T17:30:15.813Z,18.40
2018-02-07T17:32:18.414Z,18.40
2018-02-07T17:34:20.837Z,18.40
2018-02-07T17:36:23.352Z,18.40
2018-02-07T17:38:25.848Z,18.40
2018-02-07T17:40:28.492Z,18.30
2018-02-07T17:42:30.991Z,18.30
2018-02-07T17:44:33.390Z,18.30
2018-02-07T17:46:35.824Z,18.30
2018-02-07T17:48:38.247Z,18.30
2018-02-07T17:50:40.730Z,18.30
2018-02-07T17:52:43.190Z,18.30
2018-02-07T17:54:45.611Z,18.30
2018-02-07T17:56:48.164Z,18.30
2018-02-07T17:58:50.580Z,18.30
2018-02-07T18:00:53.189Z,18.30
2018-02-07T18:02:55.696Z,18.30
2018-02-07T18:04:58.156Z,18.30
2018-02-07T18:07:00.589Z,18.30
2018-02-07T18:09:03.086Z,18.30
2018-02-07T18:11:05.740Z,18.30
2018-02-07T18:13:08.218Z,18.30
2018-02-07T18:15:10.770Z,18.20
2018-02-07T18:17:13.212Z,18.30
2018-02-07T18:19:16.444Z,18.20
2018-02-07T18:21:18.867Z,18.20
2018-02-07T18:23:21.385Z,18.20
2018-02-07T18:25:23.869Z,18.20
2018-02-07T18:27:26.339Z,18.20
2018-02-07T18:29:28.989Z,18.20
2018-02-07T18:31:31.491Z,18.20
2018-02-07T18:33:33.914Z,18.20
2018-02-07T18:35:36.461Z,18.20
2018-02-07T18:37:38.897Z,18.20
2018-02-07T18:39:41.353Z,18.20
2018-02-07T18:41:43.841Z,18.20
2018-02-07T18:43:46.318Z,18.20
2018-02-07T18:45:48.732Z,18.20
2018-02-07T18:47:51.932Z,18.20
2018-02-07T18:49:54.393Z,18.20
2018-02-07T18:51:56.821Z,18.20
2018-02-07T18:54:00.762Z,18.20
2018-02-07T18:56:03.201Z,18.10
2018-02-07T18:58:07.132Z,18.10
2018-02-07T19:00:09.734Z,18.10
2018-02-07T19:02:12.197Z,18.20
2018-02-07T19:04:14.621Z,18.20
2018-02-07T19:06:17.061Z,18.10
2018-02-07T19:08:19.608Z,18.10
2018-02-07T19:10:22.077Z,18.10
2018-02-07T19:12:24.558Z,18.10
2018-02-07T19:14:26.975Z,18.10
2018-02-07T19:16:30.195Z,18.10
2018-02-07T19:18:32.622Z,18.10
2018-02-07T19:20:35.245Z,18.10
2018-02-07T19:22:37.673Z,18.10
2018-02-07T19:24:40.891Z,18.10
2018-02-07T19:26:43.329Z,18.10
2018-02-07T19:28:45.937Z,18.10
2018-02-07T19:30:48.511Z,18.10
2018-02-07T19:32:50.925Z,18.10
2018-02-07T19:34:53.438Z,18.10
2018-02-07T19:36:55.865Z,18.10
2018-02-07T19:38:58.287Z,18.10
2018-02-07T19:41:00.706Z,18.10
2018-02-07T19:43:03.181Z,18.10
2018-02-07T19:45:05.601Z,18.10
2018-02-07T19:47:08.112Z,18.10
2018-02-07T19:49:10.641Z,18.10
2018-02-07T19:51:13.109Z,18.10
2018-02-07T19:53:15.525Z,18.10
2018-02-07T19:55:18.061Z,18.10
2018-02-07T19:57:20.617Z,18.10
2018-02-07T19:59:23.191Z,18.10
2018-02-07T20:01:25.623Z,18.10
2018-02-07T20:03:28.842Z,18.10
2018-02-07T20:05:31.256Z,18.20
2018-02-07T20:07:33.888Z,18.20
2018-02-07T20:09:36.389Z,18.20
2018-02-07T20:11:38.849Z,18.10
2018-02-07T20:13:41.501Z,18.10
2018-02-07T20:15:43.929Z,18.10
2018-02-07T20:17:46.457Z,18.10
2018-02-07T20:19:48.945Z,18.10
2018-02-07T20:21:51.409Z,18.10
2018-02-07T20:23:54.048Z,18.10
2018-02-07T20:25:56.624Z,18.10
2018-02-07T20:27:59.269Z,18.10
2018-02-07T20:30:01.741Z,18.10
2018-02-07T20:32:04.208Z,18.10
2018-02-07T20:34:06.637Z,18.10
2018-02-07T20:36:09.169Z,18.10
2018-02-07T20:38:11.755Z,18.10
2018-02-07T20:40:14.170Z,18.10
2018-02-07T20:42:16.601Z,18.10
2018-02-07T20:44:19.029Z,18.00
2018-02-07T20:46:21.453Z,18.10
2018-02-07T20:48:23.912Z,18.00
2018-02-07T20:50:26.564Z,18.00
2018-02-07T20:52:28.984Z,18.00
2018-02-07T20:54:31.401Z,18.00
2018-02-07T20:56:33.983Z,18.00
2018-02-07T20:58:36.539Z,18.00
2018-02-07T21:00:38.961Z,18.00
2018-02-07T21:02:41.595Z,18.00
2018-02-07T21:04:44.015Z,18.00
2018-02-07T21:06:46.593Z,18.00
2018-02-07T21:08:49.014Z,18.00
2018-02-07T21:10:51.487Z,18.00
2018-02-07T21:12:53.927Z,18.00
2018-02-07T21:14:56.434Z,18.00
2018-02-07T21:16:58.872Z,18.00
2018-02-07T21:19:01.452Z,18.00
2018-02-07T21:21:03.902Z,18.00
2018-02-07T21:23:06.332Z,18.00
2018-02-07T21:25:08.832Z,18.00
2018-02-07T21:27:12.041Z,18.00
2018-02-07T21:29:14.525Z,18.00
2018-02-07T21:31:16.957Z,18.00
2018-02-07T21:33:20.176Z,18.00
2018-02-07T21:35:22.633Z,18.00
2018-02-07T21:37:25.214Z,18.00
2018-02-07T21:39:27.667Z,18.00
2018-02-07T21:41:30.167Z,18.00
2018-02-07T21:43:32.636Z,18.00
2018-02-07T21:45:35.292Z,18.00
2018-02-07T21:47:37.774Z,18.00
2018-02-07T21:49:40.439Z,18.00
2018-02-07T21:51:42.912Z,18.00
2018-02-07T21:53:45.390Z,18.00
2018-02-07T21:55:48.046Z,18.00
2018-02-07T21:57:50.552Z,18.00
2018-02-07T21:59:53.093Z,18.00
2018-02-07T22:01:55.561Z,18.00
2018-02-07T22:03:57.990Z,18.00
2018-02-07T22:06:01.310Z,18.00
2018-02-07T22:08:03.898Z,18.00
2018-02-07T22:10:06.372Z,18.00
2018-02-07T22:12:08.926Z,18.00
2018-02-07T22:14:11.353Z,18.00
2018-02-07T22:16:15.321Z,18.00
2018-02-07T22:18:17.736Z,18.00
2018-02-07T22:20:20.172Z,18.00
2018-02-07T22:22:22.820Z,18.00
2018-02-07T22:24:25.309Z,18.00
2018-02-07T22:26:27.785Z,18.00
2018-02-07T22:28:30.333Z,18.00
2018-02-07T22:30:32.910Z,18.00
2018-02-07T22:32:35.389Z,18.00
2018-02-07T22:34:37.864Z,18.00
2018-02-07T22:36:40.293Z,18.00
2018-02-07T22:38:43.612Z,18.00
2018-02-07T22:40:46.083Z,17.90
2018-02-07T22:42:48.754Z,18.00
2018-02-07T22:44:51.221Z,18.00
2018-02-07T22:46:53.702Z,18.00
2018-02-07T22:48:56.206Z,18.00
2018-02-07T22:50:58.629Z,18.00
2018-02-07T22:53:01.118Z,18.00
2018-02-07T22:55:03.562Z,18.00
2018-02-07T22:57:06.009Z,18.00
2018-02-07T22:59:09.325Z,18.00
2018-02-07T23:01:11.804Z,18.00
2018-02-07T23:03:14.245Z,18.00
2018-02-07T23:05:17.426Z,18.00
2018-02-07T23:07:19.848Z,18.00
2018-02-07T23:09:22.488Z,18.00
2018-02-07T23:11:24.913Z,18.00
2018-02-07T23:13:27.632Z,18.00
2018-02-07T23:15:30.081Z,17.90
2018-02-07T23:17:33.278Z,18.00
2018-02-07T23:19:35.870Z,17.90
2018-02-07T23:21:38.308Z,17.90
2018-02-07T23:23:41.490Z,17.90
2018-02-07T23:25:43.930Z,17.90
2018-02-07T23:27:46.560Z,17.90
2018-02-07T23:29:49.001Z,17.90
2018-02-07T23:31:52.198Z,17.90
2018-02-07T23:33:54.784Z,17.90
2018-02-07T23:35:57.232Z,17.90
2018-02-07T23:38:00.437Z,18.00
2018-02-07T23:40:02.853Z,18.00
2018-02-07T23:42:05.288Z,17.90
2018-02-07T23:44:07.784Z,17.90
2018-02-07T23:46:10.428Z,17.90
2018-02-07T23:48:12.899Z,17.90
2018-02-07T23:50:15.409Z,17.90
2018-02-07T23:52:18.040Z,17.90
2018-02-07T23:54:20.485Z,17.90
2018-02-07T23:56:23.668Z,17.90
2018-02-07T23:58:26.114Z,17.90
